Pena Blanca, New Mexico
Current Conditions -  °F | °C
As of 1:53 PM on Sunday 23 Nov 2014 (Local Time) from KSAF Reporting Station
Light Rain Light Rain  
Wind Chill:   Ceiling: 6500
Heat Index:   Visibility: 10mi
Dew Point: -11°   Wind: 17mph
Humidity: 31%   Direction: 280°W
Pressure: 29.76"   Gusts: 29mph
Location:  35.57°N, 106.34°W
Report Text: KSAF 232053Z 28015G25KT 10SM -RA OVC065 06/M11 A2976 RMK AO2 PK WND 26027/2043 RAE14B39 SLP052 P0000 60000 T00561106 56010
Loading
Personal Weather Stations






























Interactive Weather Map New forecast layout! Learn more

10-Day Weather Forecast

Advertisements
Track Severe Weather on mobile